sensor_id;sensor_type;location;lat;lon;timestamp;temperature;humidity
3268;DHT22;1646;52.450;13.326;2023-05-27T00:00:05;15.10;92.40
3268;DHT22;1646;52.450;13.326;2023-05-27T00:05:04;15.00;92.50
3268;DHT22;1646;52.450;13.326;2023-05-27T00:10:05;15.00;93.50
3268;DHT22;1646;52.450;13.326;2023-05-27T00:15:04;15.00;93.60
3268;DHT22;1646;52.450;13.326;2023-05-27T00:20:02;15.00;94.20
3268;DHT22;1646;52.450;13.326;2023-05-27T00:25:07;14.90;93.90
3268;DHT22;1646;52.450;13.326;2023-05-27T00:30:06;14.80;94.70
3268;DHT22;1646;52.450;13.326;2023-05-27T00:35:06;14.80;95.20
3268;DHT22;1646;52.450;13.326;2023-05-27T00:40:09;14.80;95.50
3268;DHT22;1646;52.450;13.326;2023-05-27T00:45:12;14.80;95.20
3268;DHT22;1646;52.450;13.326;2023-05-27T00:50:10;14.70;95.40
3268;DHT22;1646;52.450;13.326;2023-05-27T00:55:11;14.70;95.30
3268;DHT22;1646;52.450;13.326;2023-05-27T01:00:11;14.60;95.70
3268;DHT22;1646;52.450;13.326;2023-05-27T01:05:11;14.60;95.90
3268;DHT22;1646;52.450;13.326;2023-05-27T01:10:18;14.50;96.70
3268;DHT22;1646;52.450;13.326;2023-05-27T01:15:21;14.50;97.00
3268;DHT22;1646;52.450;13.326;2023-05-27T01:20:20;14.40;97.00
3268;DHT22;1646;52.450;13.326;2023-05-27T01:25:20;14.40;97.60
3268;DHT22;1646;52.450;13.326;2023-05-27T01:30:19;14.40;98.70
3268;DHT22;1646;52.450;13.326;2023-05-27T01:35:24;14.30;98.60
3268;DHT22;1646;52.450;13.326;2023-05-27T01:40:24;14.30;98.30
3268;DHT22;1646;52.450;13.326;2023-05-27T01:45:23;14.20;98.10
3268;DHT22;1646;52.450;13.326;2023-05-27T01:50:23;14.00;98.40
3268;DHT22;1646;52.450;13.326;2023-05-27T01:55:22;13.90;99.10
3268;DHT22;1646;52.450;13.326;2023-05-27T02:00:23;13.90;99.30
3268;DHT22;1646;52.450;13.326;2023-05-27T02:05:23;13.80;99.90
3268;DHT22;1646;52.450;13.326;2023-05-27T02:10:22;13.80;99.90
3268;DHT22;1646;52.450;13.326;2023-05-27T02:15:20;13.80;99.90
3268;DHT22;1646;52.450;13.326;2023-05-27T02:20:22;13.90;99.90
3268;DHT22;1646;52.450;13.326;2023-05-27T02:25:21;13.70;99.90
3268;DHT22;1646;52.450;13.326;2023-05-27T02:30:19;13.70;99.90
3268;DHT22;1646;52.450;13.326;2023-05-27T02:35:17;13.60;99.90
3268;DHT22;1646;52.450;13.326;2023-05-27T02:40:24;13.60;99.90
3268;DHT22;1646;52.450;13.326;2023-05-27T02:45:24;13.50;99.90
3268;DHT22;1646;52.450;13.326;2023-05-27T02:50:23;13.50;99.90
3268;DHT22;1646;52.450;13.326;2023-05-27T02:55:21;13.40;99.90
3268;DHT22;1646;52.450;13.326;2023-05-27T03:00:21;13.40;99.90
3268;DHT22;1646;52.450;13.326;2023-05-27T03:05:19;13.30;99.90
3268;DHT22;1646;52.450;13.326;2023-05-27T03:10:19;13.30;99.90
3268;DHT22;1646;52.450;13.326;2023-05-27T03:15:17;13.30;99.90
3268;DHT22;1646;52.450;13.326;2023-05-27T03:20:20;13.30;99.90
3268;DHT22;1646;52.450;13.326;2023-05-27T03:25:19;13.30;99.90
3268;DHT22;1646;52.450;13.326;2023-05-27T03:30:18;13.20;99.90
3268;DHT22;1646;52.450;13.326;2023-05-27T03:35:21;13.20;99.90
3268;DHT22;1646;52.450;13.326;2023-05-27T03:40:19;13.10;99.90
3268;DHT22;1646;52.450;13.326;2023-05-27T03:45:18;13.20;99.90
3268;DHT22;1646;52.450;13.326;2023-05-27T03:50:16;13.20;99.90
3268;DHT22;1646;52.450;13.326;2023-05-27T03:55:17;13.30;99.90
3268;DHT22;1646;52.450;13.326;2023-05-27T04:00:18;13.30;99.90
3268;DHT22;1646;52.450;13.326;2023-05-27T04:05:20;13.40;99.90
3268;DHT22;1646;52.450;13.326;2023-05-27T04:10:20;13.40;99.90
3268;DHT22;1646;52.450;13.326;2023-05-27T04:15:18;13.40;99.90
3268;DHT22;1646;52.450;13.326;2023-05-27T04:20:16;13.50;99.90
3268;DHT22;1646;52.450;13.326;2023-05-27T04:25:21;13.50;99.90
3268;DHT22;1646;52.450;13.326;2023-05-27T04:30:33;13.60;99.90
3268;DHT22;1646;52.450;13.326;2023-05-27T04:35:33;13.70;99.90
3268;DHT22;1646;52.450;13.326;2023-05-27T04:40:36;13.90;99.90
3268;DHT22;1646;52.450;13.326;2023-05-27T04:45:49;14.00;99.90
3268;DHT22;1646;52.450;13.326;2023-05-27T04:50:48;14.10;99.90
3268;DHT22;1646;52.450;13.326;2023-05-27T04:55:51;14.20;99.90
3268;DHT22;1646;52.450;13.326;2023-05-27T05:00:50;14.40;99.90
3268;DHT22;1646;52.450;13.326;2023-05-27T05:05:52;14.60;99.90
3268;DHT22;1646;52.450;13.326;2023-05-27T05:10:53;14.80;99.90
3268;DHT22;1646;52.450;13.326;2023-05-27T05:15:52;14.90;99.90
3268;DHT22;1646;52.450;13.326;2023-05-27T05:20:51;15.00;99.90
3268;DHT22;1646;52.450;13.326;2023-05-27T05:26:00;15.10;99.90
3268;DHT22;1646;52.450;13.326;2023-05-27T05:31:08;15.20;99.90
3268;DHT22;1646;52.450;13.326;2023-05-27T05:36:07;15.30;99.90
3268;DHT22;1646;52.450;13.326;2023-05-27T05:41:29;15.50;99.90
3268;DHT22;1646;52.450;13.326;2023-05-27T05:46:28;15.70;99.90
3268;DHT22;1646;52.450;13.326;2023-05-27T05:51:27;15.80;99.90
3268;DHT22;1646;52.450;13.326;2023-05-27T05:56:29;15.90;99.90
3268;DHT22;1646;52.450;13.326;2023-05-27T06:01:28;16.10;99.90
3268;DHT22;1646;52.450;13.326;2023-05-27T06:06:27;16.20;99.90
3268;DHT22;1646;52.450;13.326;2023-05-27T06:11:38;16.40;99.90
3268;DHT22;1646;52.450;13.326;2023-05-27T06:16:37;16.50;99.90
3268;DHT22;1646;52.450;13.326;2023-05-27T06:21:37;16.60;99.90
3268;DHT22;1646;52.450;13.326;2023-05-27T06:26:57;16.70;99.90
3268;DHT22;1646;52.450;13.326;2023-05-27T06:31:55;16.70;99.90
3268;DHT22;1646;52.450;13.326;2023-05-27T06:36:54;16.80;99.90
3268;DHT22;1646;52.450;13.326;2023-05-27T06:41:52;17.00;99.90
3268;DHT22;1646;52.450;13.326;2023-05-27T06:47:30;17.20;99.90
3268;DHT22;1646;52.450;13.326;2023-05-27T06:52:29;17.30;99.90
3268;DHT22;1646;52.450;13.326;2023-05-27T06:57:45;17.40;99.90
3268;DHT22;1646;52.450;13.326;2023-05-27T07:02:51;17.50;99.90
3268;DHT22;1646;52.450;13.326;2023-05-27T07:07:50;17.60;99.50
3268;DHT22;1646;52.450;13.326;2023-05-27T07:12:48;17.70;98.80
3268;DHT22;1646;52.450;13.326;2023-05-27T07:18:04;17.90;97.50
3268;DHT22;1646;52.450;13.326;2023-05-27T07:23:03;18.20;95.70
3268;DHT22;1646;52.450;13.326;2023-05-27T07:28:04;18.30;95.00
3268;DHT22;1646;52.450;13.326;2023-05-27T07:33:13;18.30;94.60
3268;DHT22;1646;52.450;13.326;2023-05-27T07:38:12;18.50;92.20
3268;DHT22;1646;52.450;13.326;2023-05-27T07:43:10;18.70;91.30
3268;DHT22;1646;52.450;13.326;2023-05-27T07:48:09;18.70;90.30
3268;DHT22;1646;52.450;13.326;2023-05-27T07:53:08;18.80;85.50
3268;DHT22;1646;52.450;13.326;2023-05-27T07:58:09;18.90;84.50
3268;DHT22;1646;52.450;13.326;2023-05-27T08:03:25;19.10;80.30
3268;DHT22;1646;52.450;13.326;2023-05-27T08:08:34;19.10;82.30
3268;DHT22;1646;52.450;13.326;2023-05-27T08:13:56;19.20;77.40
3268;DHT22;1646;52.450;13.326;2023-05-27T08:19:17;19.30;76.50
3268;DHT22;1646;52.450;13.326;2023-05-27T08:24:35;19.20;76.60
3268;DHT22;1646;52.450;13.326;2023-05-27T08:29:41;19.40;79.60
3268;DHT22;1646;52.450;13.326;2023-05-27T08:35:02;19.70;73.00
3268;DHT22;1646;52.450;13.326;2023-05-27T08:40:03;19.90;66.80
3268;DHT22;1646;52.450;13.326;2023-05-27T08:45:11;20.10;71.70
3268;DHT22;1646;52.450;13.326;2023-05-27T08:50:10;20.50;69.20
3268;DHT22;1646;52.450;13.326;2023-05-27T08:55:14;20.70;68.80
3268;DHT22;1646;52.450;13.326;2023-05-27T09:00:14;21.00;65.00
3268;DHT22;1646;52.450;13.326;2023-05-27T09:05:16;20.80;63.00
3268;DHT22;1646;52.450;13.326;2023-05-27T09:10:16;20.90;66.50
3268;DHT22;1646;52.450;13.326;2023-05-27T09:15:14;21.40;67.00
3268;DHT22;1646;52.450;13.326;2023-05-27T09:20:13;21.80;63.30
3268;DHT22;1646;52.450;13.326;2023-05-27T09:25:11;21.50;59.60
3268;DHT22;1646;52.450;13.326;2023-05-27T09:30:15;21.80;61.40
3268;DHT22;1646;52.450;13.326;2023-05-27T09:35:15;22.50;63.30
3268;DHT22;1646;52.450;13.326;2023-05-27T09:40:14;22.90;55.10
3268;DHT22;1646;52.450;13.326;2023-05-27T09:45:15;23.70;57.60
3268;DHT22;1646;52.450;13.326;2023-05-27T09:50:14;24.50;55.50
3268;DHT22;1646;52.450;13.326;2023-05-27T09:55:13;25.10;57.30
3268;DHT22;1646;52.450;13.326;2023-05-27T10:00:14;25.70;55.20
3268;DHT22;1646;52.450;13.326;2023-05-27T10:05:14;25.40;51.50
3268;DHT22;1646;52.450;13.326;2023-05-27T10:10:15;25.40;52.40
3268;DHT22;1646;52.450;13.326;2023-05-27T10:15:23;25.70;54.60
3268;DHT22;1646;52.450;13.326;2023-05-27T10:20:29;25.90;53.50
3268;DHT22;1646;52.450;13.326;2023-05-27T10:25:35;26.10;51.60
3268;DHT22;1646;52.450;13.326;2023-05-27T10:30:44;26.10;52.20
3268;DHT22;1646;52.450;13.326;2023-05-27T10:35:43;26.30;51.50
3268;DHT22;1646;52.450;13.326;2023-05-27T10:40:43;26.40;50.20
3268;DHT22;1646;52.450;13.326;2023-05-27T10:45:41;26.10;49.60
3268;DHT22;1646;52.450;13.326;2023-05-27T10:50:49;26.10;50.60
3268;DHT22;1646;52.450;13.326;2023-05-27T10:55:49;25.90;49.90
3268;DHT22;1646;52.450;13.326;2023-05-27T11:00:49;26.20;51.60
3268;DHT22;1646;52.450;13.326;2023-05-27T11:05:58;26.30;48.90
3268;DHT22;1646;52.450;13.326;2023-05-27T11:11:00;26.40;47.50
3268;DHT22;1646;52.450;13.326;2023-05-27T11:16:00;26.00;48.90
3268;DHT22;1646;52.450;13.326;2023-05-27T11:21:00;26.20;48.90
3268;DHT22;1646;52.450;13.326;2023-05-27T11:25:59;26.30;47.90
3268;DHT22;1646;52.450;13.326;2023-05-27T11:31:01;26.20;47.70
3268;DHT22;1646;52.450;13.326;2023-05-27T11:36:06;26.30;45.90
3268;DHT22;1646;52.450;13.326;2023-05-27T11:41:08;26.00;48.10
3268;DHT22;1646;52.450;13.326;2023-05-27T11:46:06;26.00;47.00
3268;DHT22;1646;52.450;13.326;2023-05-27T11:51:06;26.10;48.10
3268;DHT22;1646;52.450;13.326;2023-05-27T11:56:05;26.40;46.10
3268;DHT22;1646;52.450;13.326;2023-05-27T12:01:04;26.40;45.60
3268;DHT22;1646;52.450;13.326;2023-05-27T12:06:03;26.20;45.50
3268;DHT22;1646;52.450;13.326;2023-05-27T12:11:03;26.20;46.50
3268;DHT22;1646;52.450;13.326;2023-05-27T12:16:01;26.40;46.20
3268;DHT22;1646;52.450;13.326;2023-05-27T12:21:00;26.60;46.30
3268;DHT22;1646;52.450;13.326;2023-05-27T12:25:58;26.90;46.80
3268;DHT22;1646;52.450;13.326;2023-05-27T12:30:58;27.00;44.90
3268;DHT22;1646;52.450;13.326;2023-05-27T12:35:57;26.70;46.70
3268;DHT22;1646;52.450;13.326;2023-05-27T12:40:56;27.00;47.40
3268;DHT22;1646;52.450;13.326;2023-05-27T12:45:55;27.00;44.20
3268;DHT22;1646;52.450;13.326;2023-05-27T12:50:54;26.70;46.40
3268;DHT22;1646;52.450;13.326;2023-05-27T12:55:53;26.80;47.10
3268;DHT22;1646;52.450;13.326;2023-05-27T13:00:51;27.00;46.90
3268;DHT22;1646;52.450;13.326;2023-05-27T13:05:49;27.10;44.50
3268;DHT22;1646;52.450;13.326;2023-05-27T13:10:50;27.10;45.20
3268;DHT22;1646;52.450;13.326;2023-05-27T13:15:49;27.20;46.30
3268;DHT22;1646;52.450;13.326;2023-05-27T13:20:47;26.90;43.10
3268;DHT22;1646;52.450;13.326;2023-05-27T13:25:49;26.70;47.30
3268;DHT22;1646;52.450;13.326;2023-05-27T13:30:48;27.00;45.30
3268;DHT22;1646;52.450;13.326;2023-05-27T13:35:46;27.20;45.50
3268;DHT22;1646;52.450;13.326;2023-05-27T13:40:45;27.30;43.60
3268;DHT22;1646;52.450;13.326;2023-05-27T13:45:44;27.50;44.70
3268;DHT22;1646;52.450;13.326;2023-05-27T13:50:43;27.50;45.20
3268;DHT22;1646;52.450;13.326;2023-05-27T13:55:41;27.50;44.30
3268;DHT22;1646;52.450;13.326;2023-05-27T14:00:40;27.50;44.60
3268;DHT22;1646;52.450;13.326;2023-05-27T14:05:39;27.50;45.10
3268;DHT22;1646;52.450;13.326;2023-05-27T14:10:38;27.40;44.00
3268;DHT22;1646;52.450;13.326;2023-05-27T14:15:36;27.30;43.40
3268;DHT22;1646;52.450;13.326;2023-05-27T14:20:34;27.40;41.90
3268;DHT22;1646;52.450;13.326;2023-05-27T14:25:35;27.00;42.60
3268;DHT22;1646;52.450;13.326;2023-05-27T14:30:33;27.20;45.80
3268;DHT22;1646;52.450;13.326;2023-05-27T14:35:33;27.30;44.40
3268;DHT22;1646;52.450;13.326;2023-05-27T14:40:34;27.50;43.50
3268;DHT22;1646;52.450;13.326;2023-05-27T14:45:32;27.40;43.60
3268;DHT22;1646;52.450;13.326;2023-05-27T14:50:30;27.50;44.20
3268;DHT22;1646;52.450;13.326;2023-05-27T14:55:28;27.60;43.00
3268;DHT22;1646;52.450;13.326;2023-05-27T15:00:28;27.60;43.60
3268;DHT22;1646;52.450;13.326;2023-05-27T15:05:27;27.70;42.80
3268;DHT22;1646;52.450;13.326;2023-05-27T15:10:25;27.60;42.70
3268;DHT22;1646;52.450;13.326;2023-05-27T15:15:23;27.50;43.60
3268;DHT22;1646;52.450;13.326;2023-05-27T15:20:23;27.40;41.80
3268;DHT22;1646;52.450;13.326;2023-05-27T15:25:22;27.50;43.30
3268;DHT22;1646;52.450;13.326;2023-05-27T15:30:20;27.50;41.90
3268;DHT22;1646;52.450;13.326;2023-05-27T15:35:19;27.10;41.60
3268;DHT22;1646;52.450;13.326;2023-05-27T15:40:18;26.80;44.20
3268;DHT22;1646;52.450;13.326;2023-05-27T15:45:17;26.80;43.00
3268;DHT22;1646;52.450;13.326;2023-05-27T15:50:15;26.90;43.10
3268;DHT22;1646;52.450;13.326;2023-05-27T15:55:13;26.90;42.60
3268;DHT22;1646;52.450;13.326;2023-05-27T16:00:14;26.90;42.40
3268;DHT22;1646;52.450;13.326;2023-05-27T16:05:12;26.90;41.50
3268;DHT22;1646;52.450;13.326;2023-05-27T16:10:11;26.90;42.90
3268;DHT22;1646;52.450;13.326;2023-05-27T16:15:10;27.10;43.10
3268;DHT22;1646;52.450;13.326;2023-05-27T16:20:11;27.10;43.40
3268;DHT22;1646;52.450;13.326;2023-05-27T16:25:10;27.20;43.20
3268;DHT22;1646;52.450;13.326;2023-05-27T16:30:09;26.90;43.40
3268;DHT22;1646;52.450;13.326;2023-05-27T16:35:08;26.80;42.20
3268;DHT22;1646;52.450;13.326;2023-05-27T16:40:09;26.70;44.50
3268;DHT22;1646;52.450;13.326;2023-05-27T16:45:08;26.50;43.90
3268;DHT22;1646;52.450;13.326;2023-05-27T16:50:07;26.30;44.90
3268;DHT22;1646;52.450;13.326;2023-05-27T16:55:09;26.30;45.20
3268;DHT22;1646;52.450;13.326;2023-05-27T17:00:09;26.10;46.70
3268;DHT22;1646;52.450;13.326;2023-05-27T17:05:08;26.00;46.80
3268;DHT22;1646;52.450;13.326;2023-05-27T17:10:09;25.90;46.00
3268;DHT22;1646;52.450;13.326;2023-05-27T17:15:08;25.60;47.10
3268;DHT22;1646;52.450;13.326;2023-05-27T17:20:07;25.50;47.20
3268;DHT22;1646;52.450;13.326;2023-05-27T17:25:15;25.40;47.60
3268;DHT22;1646;52.450;13.326;2023-05-27T17:30:13;25.10;47.10
3268;DHT22;1646;52.450;13.326;2023-05-27T17:35:12;24.80;47.50
3268;DHT22;1646;52.450;13.326;2023-05-27T17:40:11;24.50;47.40
3268;DHT22;1646;52.450;13.326;2023-05-27T17:45:11;24.20;48.20
3268;DHT22;1646;52.450;13.326;2023-05-27T17:50:09;24.00;48.20
3268;DHT22;1646;52.450;13.326;2023-05-27T17:55:08;23.80;48.10
3268;DHT22;1646;52.450;13.326;2023-05-27T18:00:07;23.60;48.70
3268;DHT22;1646;52.450;13.326;2023-05-27T18:05:09;23.50;49.00
3268;DHT22;1646;52.450;13.326;2023-05-27T18:10:08;23.20;48.90
3268;DHT22;1646;52.450;13.326;2023-05-27T18:15:08;23.00;49.50
3268;DHT22;1646;52.450;13.326;2023-05-27T18:20:09;22.90;49.80
3268;DHT22;1646;52.450;13.326;2023-05-27T18:25:09;22.70;49.70
3268;DHT22;1646;52.450;13.326;2023-05-27T18:30:08;22.50;50.20
3268;DHT22;1646;52.450;13.326;2023-05-27T18:35:08;22.40;50.20
3268;DHT22;1646;52.450;13.326;2023-05-27T18:40:25;22.30;50.70
3268;DHT22;1646;52.450;13.326;2023-05-27T18:50:48;22.00;51.30
3268;DHT22;1646;52.450;13.326;2023-05-27T18:55:46;21.90;50.70
3268;DHT22;1646;52.450;13.326;2023-05-27T19:00:44;21.60;51.40
3268;DHT22;1646;52.450;13.326;2023-05-27T19:05:44;21.50;51.30
3268;DHT22;1646;52.450;13.326;2023-05-27T19:10:44;21.40;51.40
3268;DHT22;1646;52.450;13.326;2023-05-27T19:15:43;21.20;51.60
3268;DHT22;1646;52.450;13.326;2023-05-27T19:20:41;21.10;51.90
3268;DHT22;1646;52.450;13.326;2023-05-27T19:25:39;20.90;51.80
3268;DHT22;1646;52.450;13.326;2023-05-27T19:30:39;20.80;52.50
3268;DHT22;1646;52.450;13.326;2023-05-27T19:35:38;20.70;53.00
3268;DHT22;1646;52.450;13.326;2023-05-27T19:40:36;20.60;53.10
3268;DHT22;1646;52.450;13.326;2023-05-27T19:45:34;20.40;53.30
3268;DHT22;1646;52.450;13.326;2023-05-27T19:50:34;20.30;53.20
3268;DHT22;1646;52.450;13.326;2023-05-27T19:55:33;20.10;53.20
3268;DHT22;1646;52.450;13.326;2023-05-27T20:00:31;20.00;53.40
3268;DHT22;1646;52.450;13.326;2023-05-27T20:05:29;19.90;53.80
3268;DHT22;1646;52.450;13.326;2023-05-27T20:10:29;19.70;53.90
3268;DHT22;1646;52.450;13.326;2023-05-27T20:15:27;19.60;54.20
3268;DHT22;1646;52.450;13.326;2023-05-27T20:20:26;19.40;54.30
3268;DHT22;1646;52.450;13.326;2023-05-27T20:25:30;19.30;54.60
3268;DHT22;1646;52.450;13.326;2023-05-27T20:30:28;19.20;55.10
3268;DHT22;1646;52.450;13.326;2023-05-27T20:35:26;19.10;55.00
3268;DHT22;1646;52.450;13.326;2023-05-27T20:40:25;18.90;55.30
3268;DHT22;1646;52.450;13.326;2023-05-27T20:45:24;18.90;55.90
3268;DHT22;1646;52.450;13.326;2023-05-27T20:50:23;18.80;56.60
3268;DHT22;1646;52.450;13.326;2023-05-27T20:55:21;18.70;56.10
3268;DHT22;1646;52.450;13.326;2023-05-27T21:00:19;18.60;56.40
3268;DHT22;1646;52.450;13.326;2023-05-27T21:05:19;18.50;56.00
3268;DHT22;1646;52.450;13.326;2023-05-27T21:10:18;18.40;56.30
3268;DHT22;1646;52.450;13.326;2023-05-27T21:15:16;18.30;56.10
3268;DHT22;1646;52.450;13.326;2023-05-27T21:20:14;18.20;57.10
3268;DHT22;1646;52.450;13.326;2023-05-27T21:25:15;18.10;56.40
3268;DHT22;1646;52.450;13.326;2023-05-27T21:30:13;18.00;56.50
3268;DHT22;1646;52.450;13.326;2023-05-27T21:35:12;17.90;56.80
3268;DHT22;1646;52.450;13.326;2023-05-27T21:40:11;17.90;58.00
3268;DHT22;1646;52.450;13.326;2023-05-27T21:45:11;17.80;57.70
3268;DHT22;1646;52.450;13.326;2023-05-27T21:50:09;17.70;58.10
3268;DHT22;1646;52.450;13.326;2023-05-27T21:55:09;17.60;58.10
3268;DHT22;1646;52.450;13.326;2023-05-27T22:00:09;17.60;58.20
3268;DHT22;1646;52.450;13.326;2023-05-27T22:05:14;17.50;58.90
3268;DHT22;1646;52.450;13.326;2023-05-27T22:10:12;17.50;59.10
3268;DHT22;1646;52.450;13.326;2023-05-27T22:15:11;17.40;59.70
3268;DHT22;1646;52.450;13.326;2023-05-27T22:20:10;17.40;60.40
3268;DHT22;1646;52.450;13.326;2023-05-27T22:25:10;17.40;60.20
3268;DHT22;1646;52.450;13.326;2023-05-27T22:30:08;17.30;59.90
3268;DHT22;1646;52.450;13.326;2023-05-27T22:35:08;17.20;60.10
3268;DHT22;1646;52.450;13.326;2023-05-27T22:40:08;17.10;61.30
3268;DHT22;1646;52.450;13.326;2023-05-27T22:45:08;17.10;62.90
3268;DHT22;1646;52.450;13.326;2023-05-27T22:50:07;17.00;63.70
3268;DHT22;1646;52.450;13.326;2023-05-27T22:55:06;16.90;63.50
3268;DHT22;1646;52.450;13.326;2023-05-27T23:00:05;16.80;62.50
3268;DHT22;1646;52.450;13.326;2023-05-27T23:05:06;16.70;64.20
3268;DHT22;1646;52.450;13.326;2023-05-27T23:10:06;16.70;64.80
3268;DHT22;1646;52.450;13.326;2023-05-27T23:15:05;16.60;64.60
3268;DHT22;1646;52.450;13.326;2023-05-27T23:20:06;16.50;65.00
3268;DHT22;1646;52.450;13.326;2023-05-27T23:25:05;16.40;65.30
3268;DHT22;1646;52.450;13.326;2023-05-27T23:30:05;16.40;66.90
3268;DHT22;1646;52.450;13.326;2023-05-27T23:35:07;16.30;67.30
3268;DHT22;1646;52.450;13.326;2023-05-27T23:40:06;16.20;68.40
3268;DHT22;1646;52.450;13.326;2023-05-27T23:45:05;16.10;68.60
3268;DHT22;1646;52.450;13.326;2023-05-27T23:50:05;16.10;69.50
3268;DHT22;1646;52.450;13.326;2023-05-27T23:55:05;16.00;69.00
